sensor_id;sensor_type;location;lat;lon;timestamp;pressure;altitude;pressure_sealevel;temperature;humidity
34742;BME280;20968;42.696;23.360;2024-01-10T00:01:30;96298.81;;;-0.90;63.68
34742;BME280;20968;42.696;23.360;2024-01-10T00:03:56;96301.53;;;-0.87;64.06
34742;BME280;20968;42.696;23.360;2024-01-10T00:06:21;96300.81;;;-0.84;63.70
34742;BME280;20968;42.696;23.360;2024-01-10T00:08:48;96303.53;;;-0.80;63.72
34742;BME280;20968;42.696;23.360;2024-01-10T00:11:14;96288.13;;;-0.73;63.24
34742;BME280;20968;42.696;23.360;2024-01-10T00:13:39;96295.81;;;-0.78;63.13
34742;BME280;20968;42.696;23.360;2024-01-10T00:16:05;96298.47;;;-0.85;63.34
34742;BME280;20968;42.696;23.360;2024-01-10T00:18:31;96289.25;;;-0.77;63.13
34742;BME280;20968;42.696;23.360;2024-01-10T00:20:57;96300.44;;;-0.76;63.38
34742;BME280;20968;42.696;23.360;2024-01-10T00:23:22;96308.22;;;-0.71;62.97
34742;BME280;20968;42.696;23.360;2024-01-10T00:25:48;96300.84;;;-0.74;62.78
34742;BME280;20968;42.696;23.360;2024-01-10T00:28:14;96305.84;;;-0.76;62.58
34742;BME280;20968;42.696;23.360;2024-01-10T00:30:44;96303.94;;;-0.75;62.79
34742;BME280;20968;42.696;23.360;2024-01-10T00:33:13;96309.38;;;-0.72;62.43
34742;BME280;20968;42.696;23.360;2024-01-10T00:35:38;96308.97;;;-0.74;61.78
34742;BME280;20968;42.696;23.360;2024-01-10T00:38:04;96308.94;;;-0.80;62.47
34742;BME280;20968;42.696;23.360;2024-01-10T00:40:29;96311.63;;;-0.80;63.02
34742;BME280;20968;42.696;23.360;2024-01-10T00:42:54;96309.34;;;-0.78;63.33
34742;BME280;20968;42.696;23.360;2024-01-10T00:45:20;96316.34;;;-0.71;62.96
34742;BME280;20968;42.696;23.360;2024-01-10T00:47:45;96306.72;;;-0.61;61.91
34742;BME280;20968;42.696;23.360;2024-01-10T00:50:11;96309.78;;;-0.66;62.38
34742;BME280;20968;42.696;23.360;2024-01-10T00:52:36;96310.56;;;-0.66;62.61
34742;BME280;20968;42.696;23.360;2024-01-10T00:55:02;96311.34;;;-0.65;62.76
34742;BME280;20968;42.696;23.360;2024-01-10T00:57:27;96312.09;;;-0.65;62.89
34742;BME280;20968;42.696;23.360;2024-01-10T00:59:53;96312.09;;;-0.65;63.50
34742;BME280;20968;42.696;23.360;2024-01-10T01:02:18;96310.94;;;-0.67;63.06
34742;BME280;20968;42.696;23.360;2024-01-10T01:04:43;96306.69;;;-0.68;63.12
34742;BME280;20968;42.696;23.360;2024-01-10T01:07:09;96305.56;;;-0.64;62.75
34742;BME280;20968;42.696;23.360;2024-01-10T01:09:34;96302.47;;;-0.62;62.53
34742;BME280;20968;42.696;23.360;2024-01-10T01:12:00;96308.69;;;-0.58;62.89
34742;BME280;20968;42.696;23.360;2024-01-10T01:14:26;96302.88;;;-0.57;63.24
34742;BME280;20968;42.696;23.360;2024-01-10T01:16:51;96305.59;;;-0.57;63.18
34742;BME280;20968;42.696;23.360;2024-01-10T01:19:17;96299.03;;;-0.52;63.53
34742;BME280;20968;42.696;23.360;2024-01-10T01:21:43;96303.72;;;-0.46;62.11
34742;BME280;20968;42.696;23.360;2024-01-10T01:24:08;96296.38;;;-0.45;61.18
34742;BME280;20968;42.696;23.360;2024-01-10T01:26:34;96305.97;;;-0.62;60.21
34742;BME280;20968;42.696;23.360;2024-01-10T01:28:59;96298.56;;;-0.72;60.94
34742;BME280;20968;42.696;23.360;2024-01-10T01:31:25;96294.31;;;-0.73;61.42
34742;BME280;20968;42.696;23.360;2024-01-10T01:33:50;96290.06;;;-0.70;61.07
34742;BME280;20968;42.696;23.360;2024-01-10T01:36:15;96293.53;;;-0.77;61.03
34742;BME280;20968;42.696;23.360;2024-01-10T01:38:41;96295.44;;;-0.77;61.38
34742;BME280;20968;42.696;23.360;2024-01-10T01:41:06;96299.22;;;-0.88;60.78
34742;BME280;20968;42.696;23.360;2024-01-10T01:43:32;96296.06;;;-0.97;61.07
34742;BME280;20968;42.696;23.360;2024-01-10T01:45:57;96295.22;;;-1.12;62.13
34742;BME280;20968;42.696;23.360;2024-01-10T01:48:24;96297.75;;;-1.33;62.34
34742;BME280;20968;42.696;23.360;2024-01-10T01:51:09;96297.84;;;-1.26;62.28
34742;BME280;20968;42.696;23.360;2024-01-10T01:53:36;96286.94;;;-1.36;62.97
34742;BME280;20968;42.696;23.360;2024-01-10T01:56:05;96291.00;;;-1.59;64.03
34742;BME280;20968;42.696;23.360;2024-01-10T01:58:31;96283.50;;;-1.76;64.10
34742;BME280;20968;42.696;23.360;2024-01-10T02:00:56;96276.19;;;-1.79;64.79
34742;BME280;20968;42.696;23.360;2024-01-10T02:03:23;96271.13;;;-1.81;64.28
34742;BME280;20968;42.696;23.360;2024-01-10T02:05:49;96272.72;;;-1.76;63.16
34742;BME280;20968;42.696;23.360;2024-01-10T02:08:14;96264.97;;;-1.81;63.39
34742;BME280;20968;42.696;23.360;2024-01-10T02:10:40;96273.00;;;-1.88;63.81
34742;BME280;20968;42.696;23.360;2024-01-10T02:13:06;96268.81;;;-1.82;63.50
34742;BME280;20968;42.696;23.360;2024-01-10T02:15:34;96268.41;;;-1.84;63.42
34742;BME280;20968;42.696;23.360;2024-01-10T02:18:00;96263.81;;;-1.84;63.12
34742;BME280;20968;42.696;23.360;2024-01-10T02:20:25;96263.00;;;-1.84;62.50
34742;BME280;20968;42.696;23.360;2024-01-10T02:22:51;96265.22;;;-1.93;62.03
34742;BME280;20968;42.696;23.360;2024-01-10T02:25:16;96264.88;;;-1.92;62.56
34742;BME280;20968;42.696;23.360;2024-01-10T02:27:42;96271.88;;;-1.87;62.31
34742;BME280;20968;42.696;23.360;2024-01-10T02:30:08;96267.97;;;-1.90;62.13
34742;BME280;20968;42.696;23.360;2024-01-10T02:32:34;96264.88;;;-1.92;62.42
34742;BME280;20968;42.696;23.360;2024-01-10T02:35:00;96265.22;;;-1.93;61.89
34742;BME280;20968;42.696;23.360;2024-01-10T02:37:25;96264.47;;;-1.94;61.66
34742;BME280;20968;42.696;23.360;2024-01-10T02:39:50;96267.63;;;-1.88;61.86
34742;BME280;20968;42.696;23.360;2024-01-10T02:42:16;96269.56;;;-1.82;61.16
34742;BME280;20968;42.696;23.360;2024-01-10T02:44:42;96268.06;;;-1.83;60.71
34742;BME280;20968;42.696;23.360;2024-01-10T02:47:07;96275.88;;;-1.67;61.28
34742;BME280;20968;42.696;23.360;2024-01-10T02:49:33;96269.84;;;-1.54;60.31
34742;BME280;20968;42.696;23.360;2024-01-10T02:51:59;96273.72;;;-1.52;60.28
34742;BME280;20968;42.696;23.360;2024-01-10T02:54:25;96274.47;;;-1.51;60.85
34742;BME280;20968;42.696;23.360;2024-01-10T02:56:50;96273.78;;;-1.41;60.38
34742;BME280;20968;42.696;23.360;2024-01-10T02:59:16;96275.69;;;-1.45;60.40
34742;BME280;20968;42.696;23.360;2024-01-10T03:01:41;96275.34;;;-1.40;59.43
34742;BME280;20968;42.696;23.360;2024-01-10T03:04:07;96270.19;;;-1.56;58.98
34742;BME280;20968;42.696;23.360;2024-01-10T03:06:32;96276.00;;;-1.54;59.60
34742;BME280;20968;42.696;23.360;2024-01-10T03:08:58;96273.75;;;-1.48;60.10
34742;BME280;20968;42.696;23.360;2024-01-10T03:11:23;96268.72;;;-1.50;59.26
34742;BME280;20968;42.696;23.360;2024-01-10T03:13:51;96272.13;;;-1.56;59.66
34742;BME280;20968;42.696;23.360;2024-01-10T03:16:17;96283.34;;;-1.54;60.27
34742;BME280;20968;42.696;23.360;2024-01-10T03:18:42;96280.28;;;-1.49;60.16
34742;BME280;20968;42.696;23.360;2024-01-10T03:21:08;96283.38;;;-1.47;60.01
34742;BME280;20968;42.696;23.360;2024-01-10T03:23:33;96283.03;;;-1.42;60.26
34742;BME280;20968;42.696;23.360;2024-01-10T03:25:58;96284.59;;;-1.38;59.78
34742;BME280;20968;42.696;23.360;2024-01-10T03:28:24;96281.84;;;-1.45;59.08
34742;BME280;20968;42.696;23.360;2024-01-10T03:30:49;96284.19;;;-1.43;58.38
34742;BME280;20968;42.696;23.360;2024-01-10T03:33:15;96286.84;;;-1.47;58.91
34742;BME280;20968;42.696;23.360;2024-01-10T03:35:41;96288.38;;;-1.49;59.63
34742;BME280;20968;42.696;23.360;2024-01-10T03:38:07;96291.63;;;-1.30;59.31
34742;BME280;20968;42.696;23.360;2024-01-10T03:40:32;96287.03;;;-1.26;59.30
34742;BME280;20968;42.696;23.360;2024-01-10T03:42:58;96279.97;;;-1.41;58.86
34742;BME280;20968;42.696;23.360;2024-01-10T03:45:23;96282.25;;;-1.46;59.27
34742;BME280;20968;42.696;23.360;2024-01-10T03:47:49;96282.22;;;-1.50;58.71
34742;BME280;20968;42.696;23.360;2024-01-10T03:50:18;96282.81;;;-1.70;58.76
34742;BME280;20968;42.696;23.360;2024-01-10T03:52:44;96283.53;;;-1.73;59.37
34742;BME280;20968;42.696;23.360;2024-01-10T03:55:11;96277.44;;;-1.66;59.18
34742;BME280;20968;42.696;23.360;2024-01-10T03:57:38;96277.88;;;-1.61;58.86
34742;BME280;20968;42.696;23.360;2024-01-10T04:00:04;96292.50;;;-1.62;58.18
34742;BME280;20968;42.696;23.360;2024-01-10T04:02:31;96293.19;;;-1.72;59.22
34742;BME280;20968;42.696;23.360;2024-01-10T04:04:57;96289.69;;;-1.76;59.24
34742;BME280;20968;42.696;23.360;2024-01-10T04:07:22;96289.31;;;-1.74;59.58
34742;BME280;20968;42.696;23.360;2024-01-10T04:09:48;96293.94;;;-1.75;59.74
34742;BME280;20968;42.696;23.360;2024-01-10T04:12:13;96294.75;;;-1.71;60.37
34742;BME280;20968;42.696;23.360;2024-01-10T04:14:38;96295.53;;;-1.67;59.58
34742;BME280;20968;42.696;23.360;2024-01-10T04:17:04;96298.22;;;-1.70;59.20
34742;BME280;20968;42.696;23.360;2024-01-10T04:19:32;96297.84;;;-1.69;59.73
34742;BME280;20968;42.696;23.360;2024-01-10T04:21:57;96298.19;;;-1.74;59.26
34742;BME280;20968;42.696;23.360;2024-01-10T04:24:23;96299.72;;;-1.73;59.34
34742;BME280;20968;42.696;23.360;2024-01-10T04:26:48;96308.63;;;-1.72;59.69
34742;BME280;20968;42.696;23.360;2024-01-10T04:29:14;96306.03;;;-1.58;60.21
34742;BME280;20968;42.696;23.360;2024-01-10T04:31:39;96309.88;;;-1.59;60.31
34742;BME280;20968;42.696;23.360;2024-01-10T04:34:05;96306.47;;;-1.53;60.01
34742;BME280;20968;42.696;23.360;2024-01-10T04:36:30;96311.97;;;-1.43;60.42
34742;BME280;20968;42.696;23.360;2024-01-10T04:38:56;96324.72;;;-1.36;59.64
34742;BME280;20968;42.696;23.360;2024-01-10T04:41:22;96323.63;;;-1.28;59.37
34742;BME280;20968;42.696;23.360;2024-01-10T04:43:47;96320.59;;;-1.23;60.25
34742;BME280;20968;42.696;23.360;2024-01-10T04:46:13;96324.47;;;-1.24;60.68
34742;BME280;20968;42.696;23.360;2024-01-10T04:48:38;96331.44;;;-1.20;60.71
34742;BME280;20968;42.696;23.360;2024-01-10T04:51:04;96331.50;;;-1.13;60.68
34742;BME280;20968;42.696;23.360;2024-01-10T04:53:29;96333.78;;;-1.15;60.71
34742;BME280;20968;42.696;23.360;2024-01-10T04:55:54;96328.78;;;-1.13;59.68
34742;BME280;20968;42.696;23.360;2024-01-10T04:58:20;96337.59;;;-1.19;58.83
34742;BME280;20968;42.696;23.360;2024-01-10T05:00:45;96337.56;;;-1.23;59.33
34742;BME280;20968;42.696;23.360;2024-01-10T05:03:11;96333.28;;;-1.27;59.79
34742;BME280;20968;42.696;23.360;2024-01-10T05:05:37;96338.69;;;-1.27;60.24
34742;BME280;20968;42.696;23.360;2024-01-10T05:08:02;96331.84;;;-1.18;60.11
34742;BME280;20968;42.696;23.360;2024-01-10T05:10:28;96333.81;;;-1.11;60.05
34742;BME280;20968;42.696;23.360;2024-01-10T05:12:53;96332.59;;;-1.17;59.83
34742;BME280;20968;42.696;23.360;2024-01-10T05:15:19;96333.03;;;-1.12;60.21
34742;BME280;20968;42.696;23.360;2024-01-10T05:17:44;96336.47;;;-1.15;58.69
34742;BME280;20968;42.696;23.360;2024-01-10T05:20:10;96335.31;;;-1.17;59.40
34742;BME280;20968;42.696;23.360;2024-01-10T05:22:35;96340.31;;;-1.16;59.06
34742;BME280;20968;42.696;23.360;2024-01-10T05:25:01;96342.28;;;-1.13;59.12
34742;BME280;20968;42.696;23.360;2024-01-10T05:27:27;96348.47;;;-1.09;58.18
34742;BME280;20968;42.696;23.360;2024-01-10T05:29:52;96352.38;;;-1.06;59.18
34742;BME280;20968;42.696;23.360;2024-01-10T05:32:18;96348.16;;;-1.04;57.56
34742;BME280;20968;42.696;23.360;2024-01-10T05:34:44;96353.84;;;-1.16;58.25
34742;BME280;20968;42.696;23.360;2024-01-10T05:37:10;96367.38;;;-1.12;56.87
34742;BME280;20968;42.696;23.360;2024-01-10T05:39:36;96357.28;;;-1.19;55.92
34742;BME280;20968;42.696;23.360;2024-01-10T05:42:01;96361.91;;;-1.19;56.95
34742;BME280;20968;42.696;23.360;2024-01-10T05:44:30;96361.16;;;-1.20;56.33
34742;BME280;20968;42.696;23.360;2024-01-10T05:46:55;96362.72;;;-1.15;56.20
34742;BME280;20968;42.696;23.360;2024-01-10T05:49:25;96360.41;;;-1.13;55.97
34742;BME280;20968;42.696;23.360;2024-01-10T05:51:50;96359.63;;;-1.17;55.52
34742;BME280;20968;42.696;23.360;2024-01-10T05:54:15;96359.59;;;-1.21;54.90
34742;BME280;20968;42.696;23.360;2024-01-10T05:56:43;96358.00;;;-1.25;55.60
34742;BME280;20968;42.696;23.360;2024-01-10T05:59:08;96366.06;;;-1.29;54.17
34742;BME280;20968;42.696;23.360;2024-01-10T06:01:33;96369.47;;;-1.35;54.45
34742;BME280;20968;42.696;23.360;2024-01-10T06:03:59;96370.97;;;-1.41;55.29
34742;BME280;20968;42.696;23.360;2024-01-10T06:06:24;96372.94;;;-1.38;55.87
34742;BME280;20968;42.696;23.360;2024-01-10T06:08:50;96370.72;;;-1.29;54.90
34742;BME280;20968;42.696;23.360;2024-01-10T06:11:15;96378.41;;;-1.31;54.63
34742;BME280;20968;42.696;23.360;2024-01-10T06:13:41;96376.16;;;-1.26;55.57
34742;BME280;20968;42.696;23.360;2024-01-10T06:16:07;96381.56;;;-1.22;56.20
34742;BME280;20968;42.696;23.360;2024-01-10T06:18:32;96383.41;;;-1.30;56.25
34742;BME280;20968;42.696;23.360;2024-01-10T06:20:58;96387.63;;;-1.36;56.13
34742;BME280;20968;42.696;23.360;2024-01-10T06:23:23;96391.97;;;-1.24;55.53
34742;BME280;20968;42.696;23.360;2024-01-10T06:25:48;96388.88;;;-1.23;56.06
34742;BME280;20968;42.696;23.360;2024-01-10T06:28:14;96396.66;;;-1.18;56.53
34742;BME280;20968;42.696;23.360;2024-01-10T06:30:39;96392.91;;;-1.06;55.67
34742;BME280;20968;42.696;23.360;2024-01-10T06:33:05;96395.97;;;-1.04;55.52
34742;BME280;20968;42.696;23.360;2024-01-10T06:35:32;96403.97;;;-1.18;54.13
34742;BME280;20968;42.696;23.360;2024-01-10T06:37:57;96395.53;;;-1.13;54.93
34742;BME280;20968;42.696;23.360;2024-01-10T06:40:23;96403.56;;;-1.20;54.14
34742;BME280;20968;42.696;23.360;2024-01-10T06:42:48;96407.09;;;-1.16;54.73
34742;BME280;20968;42.696;23.360;2024-01-10T06:45:14;96413.59;;;-1.21;53.17
34742;BME280;20968;42.696;23.360;2024-01-10T06:47:39;96413.25;;;-1.16;52.60
34742;BME280;20968;42.696;23.360;2024-01-10T06:50:05;96415.47;;;-1.25;52.47
34742;BME280;20968;42.696;23.360;2024-01-10T06:52:31;96417.47;;;-1.18;51.93
34742;BME280;20968;42.696;23.360;2024-01-10T06:54:57;96425.84;;;-1.34;51.99
34742;BME280;20968;42.696;23.360;2024-01-10T06:57:22;96420.13;;;-1.25;52.00
34742;BME280;20968;42.696;23.360;2024-01-10T06:59:48;96424.78;;;-1.22;50.82
34742;BME280;20968;42.696;23.360;2024-01-10T07:02:14;96429.06;;;-1.18;51.54
34742;BME280;20968;42.696;23.360;2024-01-10T07:04:39;96427.56;;;-1.12;52.58
34742;BME280;20968;42.696;23.360;2024-01-10T07:07:05;96421.50;;;-0.98;52.77
34742;BME280;20968;42.696;23.360;2024-01-10T07:09:31;96418.88;;;-0.91;52.50
34742;BME280;20968;42.696;23.360;2024-01-10T07:11:56;96425.94;;;-0.80;52.87
34742;BME280;20968;42.696;23.360;2024-01-10T07:14:21;96419.28;;;-0.86;52.85
34742;BME280;20968;42.696;23.360;2024-01-10T07:16:47;96427.41;;;-0.86;52.46
34742;BME280;20968;42.696;23.360;2024-01-10T07:19:13;96420.53;;;-0.77;52.24
34742;BME280;20968;42.696;23.360;2024-01-10T07:21:42;96434.06;;;-0.77;50.94
34742;BME280;20968;42.696;23.360;2024-01-10T07:24:09;96435.59;;;-0.76;51.41
34742;BME280;20968;42.696;23.360;2024-01-10T07:26:38;96437.13;;;-0.78;51.37
34742;BME280;20968;42.696;23.360;2024-01-10T07:29:03;96434.88;;;-0.69;50.82
34742;BME280;20968;42.696;23.360;2024-01-10T07:31:29;96438.31;;;-0.72;50.89
34742;BME280;20968;42.696;23.360;2024-01-10T07:33:58;96441.50;;;-0.60;49.84
34742;BME280;20968;42.696;23.360;2024-01-10T07:36:24;96445.31;;;-0.64;50.08
34742;BME280;20968;42.696;23.360;2024-01-10T07:38:54;96448.34;;;-0.73;49.43
34742;BME280;20968;42.696;23.360;2024-01-10T07:41:20;96450.19;;;-0.83;49.80
34742;BME280;20968;42.696;23.360;2024-01-10T07:43:45;96455.88;;;-0.95;48.43
34742;BME280;20968;42.696;23.360;2024-01-10T07:46:11;96459.25;;;-1.05;48.03
34742;BME280;20968;42.696;23.360;2024-01-10T07:48:36;96456.97;;;-1.03;48.97
34742;BME280;20968;42.696;23.360;2024-01-10T07:51:03;96451.22;;;-0.98;50.04
34742;BME280;20968;42.696;23.360;2024-01-10T07:53:30;96456.50;;;-1.12;49.94
34742;BME280;20968;42.696;23.360;2024-01-10T07:55:55;96452.53;;;-1.25;48.49
34742;BME280;20968;42.696;23.360;2024-01-10T07:58:20;96455.41;;;-1.44;49.50
34742;BME280;20968;42.696;23.360;2024-01-10T08:00:46;96459.75;;;-1.69;49.21
34742;BME280;20968;42.696;23.360;2024-01-10T08:03:11;96452.31;;;-1.79;48.48
34742;BME280;20968;42.696;23.360;2024-01-10T08:05:37;96452.47;;;-1.65;48.52
34742;BME280;20968;42.696;23.360;2024-01-10T08:08:03;96452.66;;;-1.48;48.64
34742;BME280;20968;42.696;23.360;2024-01-10T08:10:28;96457.53;;;-1.24;49.67
34742;BME280;20968;42.696;23.360;2024-01-10T08:12:54;96462.66;;;-1.15;48.17
34742;BME280;20968;42.696;23.360;2024-01-10T08:15:19;96454.97;;;-1.10;47.90
34742;BME280;20968;42.696;23.360;2024-01-10T08:17:45;96460.88;;;-0.97;48.94
34742;BME280;20968;42.696;23.360;2024-01-10T08:20:11;96464.75;;;-0.95;47.96
34742;BME280;20968;42.696;23.360;2024-01-10T08:22:39;96471.06;;;-0.80;48.71
34742;BME280;20968;42.696;23.360;2024-01-10T08:25:06;96457.28;;;-0.69;48.21
34742;BME280;20968;42.696;23.360;2024-01-10T08:27:32;96459.69;;;-0.57;54.17
34742;BME280;20968;42.696;23.360;2024-01-10T08:29:59;96443.38;;;1.03;78.45
34742;BME280;20968;42.696;23.360;2024-01-10T08:32:24;96457.59;;;0.62;61.99
34742;BME280;20968;42.696;23.360;2024-01-10T08:34:49;96455.97;;;0.36;52.23
34742;BME280;20968;42.696;23.360;2024-01-10T08:37:15;96471.72;;;0.17;47.83
34742;BME280;20968;42.696;23.360;2024-01-10T08:39:42;96472.47;;;0.07;45.61
34742;BME280;20968;42.696;23.360;2024-01-10T08:42:09;96469.75;;;0.03;44.65
34742;BME280;20968;42.696;23.360;2024-01-10T08:44:35;96465.28;;;-0.29;45.87
34742;BME280;20968;42.696;23.360;2024-01-10T08:47:00;96468.25;;;-0.48;46.04
34742;BME280;20968;42.696;23.360;2024-01-10T08:49:26;96473.63;;;-0.51;45.82
34742;BME280;20968;42.696;23.360;2024-01-10T08:51:52;96470.94;;;-0.51;45.88
34742;BME280;20968;42.696;23.360;2024-01-10T08:54:18;96463.19;;;-0.53;46.32
34742;BME280;20968;42.696;23.360;2024-01-10T08:56:48;96462.88;;;-0.44;46.48
34742;BME280;20968;42.696;23.360;2024-01-10T08:59:13;96457.78;;;-0.53;46.10
34742;BME280;20968;42.696;23.360;2024-01-10T09:01:39;96462.84;;;-0.48;47.74
34742;BME280;20968;42.696;23.360;2024-01-10T09:04:05;96457.38;;;-0.55;47.50
34742;BME280;20968;42.696;23.360;2024-01-10T09:06:32;96459.28;;;-0.59;46.26
34742;BME280;20968;42.696;23.360;2024-01-10T09:08:58;96456.56;;;-0.62;47.73
34742;BME280;20968;42.696;23.360;2024-01-10T09:11:24;96452.00;;;-0.51;47.16
34742;BME280;20968;42.696;23.360;2024-01-10T09:13:50;96446.91;;;-0.60;47.23
34742;BME280;20968;42.696;23.360;2024-01-10T09:16:17;96449.19;;;-0.69;49.35
34742;BME280;20968;42.696;23.360;2024-01-10T09:18:44;96451.41;;;-0.77;48.69
34742;BME280;20968;42.696;23.360;2024-01-10T09:21:09;96451.97;;;-0.58;49.79
34742;BME280;20968;42.696;23.360;2024-01-10T09:23:34;96453.28;;;-0.31;49.13
34742;BME280;20968;42.696;23.360;2024-01-10T09:26:00;96452.78;;;-0.47;49.36
34742;BME280;20968;42.696;23.360;2024-01-10T09:28:25;96449.34;;;-0.44;49.57
34742;BME280;20968;42.696;23.360;2024-01-10T09:30:51;96443.25;;;-0.34;50.63
34742;BME280;20968;42.696;23.360;2024-01-10T09:33:17;96449.06;;;-0.25;49.17
34742;BME280;20968;42.696;23.360;2024-01-10T09:35:42;96449.09;;;-0.22;50.13
34742;BME280;20968;42.696;23.360;2024-01-10T09:38:08;96445.53;;;-0.40;49.46
34742;BME280;20968;42.696;23.360;2024-01-10T09:40:34;96445.97;;;-0.31;49.70
34742;BME280;20968;42.696;23.360;2024-01-10T09:42:59;96442.22;;;-0.12;49.74
34742;BME280;20968;42.696;23.360;2024-01-10T09:45:26;96439.56;;;0.01;47.30
34742;BME280;20968;42.696;23.360;2024-01-10T09:47:56;96438.06;;;0.11;47.57
34742;BME280;20968;42.696;23.360;2024-01-10T09:50:22;96435.44;;;0.32;47.51
34742;BME280;20968;42.696;23.360;2024-01-10T09:52:51;96434.28;;;0.33;49.14
34742;BME280;20968;42.696;23.360;2024-01-10T09:55:20;96432.34;;;0.26;46.35
34742;BME280;20968;42.696;23.360;2024-01-10T09:57:46;96430.03;;;0.32;45.48
34742;BME280;20968;42.696;23.360;2024-01-10T10:00:14;96424.28;;;0.47;47.28
34742;BME280;20968;42.696;23.360;2024-01-10T10:02:41;96428.56;;;0.45;47.22
34742;BME280;20968;42.696;23.360;2024-01-10T10:05:14;96420.75;;;0.36;44.77
34742;BME280;20968;42.696;23.360;2024-01-10T10:07:44;96424.63;;;0.39;46.52
34742;BME280;20968;42.696;23.360;2024-01-10T10:10:10;96417.72;;;0.45;47.39
34742;BME280;20968;42.696;23.360;2024-01-10T10:12:43;96403.78;;;0.43;47.71
34742;BME280;20968;42.696;23.360;2024-01-10T10:15:14;96406.03;;;0.27;49.43
34742;BME280;20968;42.696;23.360;2024-01-10T10:17:41;96391.34;;;0.31;50.05
34742;BME280;20968;42.696;23.360;2024-01-10T10:20:32;96396.06;;;0.52;49.77
34742;BME280;20968;42.696;23.360;2024-01-10T10:23:05;96392.22;;;0.60;51.04
34742;BME280;20968;42.696;23.360;2024-01-10T10:25:35;96382.94;;;0.64;49.23
34742;BME280;20968;42.696;23.360;2024-01-10T10:28:02;96391.06;;;0.61;50.25
34742;BME280;20968;42.696;23.360;2024-01-10T10:30:28;96376.63;;;0.22;48.83
34742;BME280;20968;42.696;23.360;2024-01-10T10:32:55;96382.06;;;0.29;50.35
34742;BME280;20968;42.696;23.360;2024-01-10T10:35:21;96372.84;;;0.51;50.03
34742;BME280;20968;42.696;23.360;2024-01-10T10:37:51;96369.72;;;0.42;49.85
34742;BME280;20968;42.696;23.360;2024-01-10T10:40:17;96373.19;;;0.46;50.32
34742;BME280;20968;42.696;23.360;2024-01-10T10:42:51;96356.56;;;0.30;49.99
34742;BME280;20968;42.696;23.360;2024-01-10T10:45:20;96359.63;;;0.35;50.07
34742;BME280;20968;42.696;23.360;2024-01-10T10:50:22;96356.50;;;0.23;51.47
34742;BME280;20968;42.696;23.360;2024-01-10T10:52:50;96354.63;;;0.37;50.02
34742;BME280;20968;42.696;23.360;2024-01-10T10:55:16;96342.22;;;0.29;51.34
34742;BME280;20968;42.696;23.360;2024-01-10T10:57:46;96340.34;;;0.44;51.57
34742;BME280;20968;42.696;23.360;2024-01-10T11:00:20;96341.50;;;0.60;50.96
34742;BME280;20968;42.696;23.360;2024-01-10T11:02:47;96333.38;;;0.67;50.18
34742;BME280;20968;42.696;23.360;2024-01-10T11:05:13;96328.75;;;0.92;50.36
34742;BME280;20968;42.696;23.360;2024-01-10T11:07:43;96324.88;;;1.03;50.72
34742;BME280;20968;42.696;23.360;2024-01-10T11:12:48;96327.19;;;1.01;51.20
34742;BME280;20968;42.696;23.360;2024-01-10T11:15:24;96324.44;;;1.43;50.32
34742;BME280;20968;42.696;23.360;2024-01-10T11:18:24;96319.34;;;1.52;50.42
34742;BME280;20968;42.696;23.360;2024-01-10T11:21:19;96314.78;;;1.35;50.83
34742;BME280;20968;42.696;23.360;2024-01-10T11:23:53;96313.56;;;1.50;51.13
34742;BME280;20968;42.696;23.360;2024-01-10T11:26:19;96315.38;;;1.88;49.72
34742;BME280;20968;42.696;23.360;2024-01-10T11:28:46;96303.66;;;2.05;50.80
34742;BME280;20968;42.696;23.360;2024-01-10T11:31:13;96308.72;;;2.64;50.20
34742;BME280;20968;42.696;23.360;2024-01-10T11:33:39;96300.06;;;2.83;49.07
34742;BME280;20968;42.696;23.360;2024-01-10T11:36:16;96302.50;;;3.14;48.41
34742;BME280;20968;42.696;23.360;2024-01-10T11:41:43;96294.84;;;4.09;45.53
34742;BME280;20968;42.696;23.360;2024-01-10T11:46:39;96282.44;;;4.04;43.84
34742;BME280;20968;42.696;23.360;2024-01-10T11:49:11;96283.97;;;4.05;44.26
34742;BME280;20968;42.696;23.360;2024-01-10T11:51:38;96277.84;;;4.28;45.69
34742;BME280;20968;42.696;23.360;2024-01-10T11:54:04;96285.25;;;4.27;44.00
34742;BME280;20968;42.696;23.360;2024-01-10T11:56:43;96272.50;;;4.47;43.55
34742;BME280;20968;42.696;23.360;2024-01-10T11:59:11;96272.88;;;4.19;44.92
34742;BME280;20968;42.696;23.360;2024-01-10T12:01:37;96271.94;;;4.33;45.23
34742;BME280;20968;42.696;23.360;2024-01-10T12:04:04;96270.97;;;4.46;44.72
34742;BME280;20968;42.696;23.360;2024-01-10T12:06:31;96260.75;;;4.99;44.67
34742;BME280;20968;42.696;23.360;2024-01-10T12:08:57;96269.91;;;5.54;44.64
34742;BME280;20968;42.696;23.360;2024-01-10T12:11:23;96262.03;;;5.79;43.15
34742;BME280;20968;42.696;23.360;2024-01-10T12:13:48;96267.94;;;5.78;42.69
34742;BME280;20968;42.696;23.360;2024-01-10T12:16:14;96256.94;;;5.81;40.43
34742;BME280;20968;42.696;23.360;2024-01-10T12:18:43;96248.19;;;6.25;42.75
34742;BME280;20968;42.696;23.360;2024-01-10T12:21:08;96252.44;;;6.61;40.91
34742;BME280;20968;42.696;23.360;2024-01-10T12:23:35;96251.81;;;6.38;39.95
34742;BME280;20968;42.696;23.360;2024-01-10T12:26:02;96243.72;;;6.15;40.39
34742;BME280;20968;42.696;23.360;2024-01-10T12:28:30;96252.03;;;6.27;39.54
34742;BME280;20968;42.696;23.360;2024-01-10T12:30:55;96245.72;;;6.30;39.89
34742;BME280;20968;42.696;23.360;2024-01-10T12:33:24;96250.72;;;6.16;40.83
34742;BME280;20968;42.696;23.360;2024-01-10T12:36:10;96245.97;;;6.20;41.92
34742;BME280;20968;42.696;23.360;2024-01-10T12:38:36;96249.41;;;5.85;40.46
34742;BME280;20968;42.696;23.360;2024-01-10T12:41:03;96241.22;;;5.85;40.65
34742;BME280;20968;42.696;23.360;2024-01-10T12:43:30;96246.56;;;5.92;41.57
34742;BME280;20968;42.696;23.360;2024-01-10T12:46:05;96245.19;;;6.00;40.23
34742;BME280;20968;42.696;23.360;2024-01-10T12:48:31;96246.63;;;5.69;41.24
34742;BME280;20968;42.696;23.360;2024-01-10T12:50:58;96245.28;;;5.77;42.92
34742;BME280;20968;42.696;23.360;2024-01-10T12:53:28;96246.13;;;5.74;41.98
34742;BME280;20968;42.696;23.360;2024-01-10T12:55:55;96240.97;;;5.38;42.00
34742;BME280;20968;42.696;23.360;2024-01-10T12:58:20;96235.47;;;5.41;41.81
34742;BME280;20968;42.696;23.360;2024-01-10T13:00:46;96246.13;;;5.74;41.55